Wetterdaten: Woche 11.07.05 - 17.07.05 (KW28)
Datum Zeit Temperatur Luftfeuchte Luftdruck Niederschlag Wind Richtung Sonne Solar Taupunkt Windchill
11.07.2005 00:00 15.0 C 100 % 1022.7 hPa 0.3 l/m 0.1 km/h (0 Bft) N 0.00 h 0 W/m 15.0 C 15.0 C
11.07.2005 01:00 14.9 C 100 % 1022.7 hPa 0.0 l/m 0.0 km/h (0 Bft) N 0.00 h 0 W/m 14.9 C 14.9 C
11.07.2005 02:00 14.5 C 100 % 1022.8 hPa 0.0 l/m 0.8 km/h (0 Bft) O-SO 0.00 h 0 W/m 14.5 C 14.5 C
11.07.2005 03:00 14.7 C 100 % 1022.8 hPa 0.0 l/m 0.2 km/h (0 Bft) O-SO 0.00 h 0 W/m 14.7 C 14.7 C
11.07.2005 04:00 14.9 C 100 % 1022.7 hPa 0.0 l/m 0.0 km/h (0 Bft) N 0.00 h 0 W/m 14.9 C 14.9 C
11.07.2005 05:00 14.9 C 100 % 1022.7 hPa 1.0 l/m 0.0 km/h (0 Bft) N 0.00 h 1 W/m 14.9 C 14.9 C
11.07.2005 06:00 15.0 C 100 % 1022.7 hPa 0.3 l/m 0.0 km/h (0 Bft) N 0.00 h 15 W/m 15.0 C 15.0 C
11.07.2005 07:00 15.2 C 100 % 1023.5 hPa 2.0 l/m 0.8 km/h (0 Bft) O 0.00 h 20 W/m 15.2 C 15.2 C
11.07.2005 08:00 15.5 C 100 % 1023.7 hPa 0.0 l/m 0.2 km/h (0 Bft) W-NW 0.30 h 162 W/m 15.5 C 15.5 C
11.07.2005 09:00 16.1 C 96 % 1024.1 hPa 0.0 l/m 0.1 km/h (0 Bft) N 0.00 h 121 W/m 15.4 C 16.1 C
11.07.2005 10:00 16.7 C 95 % 1024.6 hPa 0.0 l/m 0.6 km/h (0 Bft) N-NO 0.00 h 212 W/m 15.8 C 16.7 C
11.07.2005 11:00 18.0 C 88 % 1024.4 hPa 0.0 l/m 0.4 km/h (0 Bft) O 0.73 h 584 W/m 15.9 C 18.0 C
11.07.2005 12:00 19.5 C 76 % 1024.2 hPa 0.0 l/m 3.6 km/h (1 Bft) O 0.93 h 650 W/m 15.1 C 19.5 C
11.07.2005 13:00 19.8 C 76 % 1024.2 hPa 0.0 l/m 9.1 km/h (2 Bft) O-SO 0.37 h 406 W/m 15.4 C 19.8 C
11.07.2005 14:00 20.6 C 71 % 1023.8 hPa 0.0 l/m 2.0 km/h (1 Bft) SW 0.67 h 496 W/m 15.2 C 20.6 C
11.07.2005 15:00 22.7 C 63 % 1023.1 hPa 0.0 l/m 2.6 km/h (1 Bft) O-SO 0.90 h 691 W/m 15.2 C 22.7 C
11.07.2005 16:00 22.7 C 60 % 1022.8 hPa 0.0 l/m 11.2 km/h (2 Bft) O-SO 0.20 h 316 W/m 14.6 C 22.7 C
11.07.2005 17:00 21.0 C 68 % 1023.0 hPa 0.0 l/m 6.1 km/h (2 Bft) O-SO 0.13 h 183 W/m 14.7 C 21.0 C
11.07.2005 18:00 18.5 C 88 % 1024.0 hPa 1.3 l/m 1.7 km/h (1 Bft) O-SO 0.03 h 81 W/m 16.5 C 18.5 C
11.07.2005 19:00 18.2 C 92 % 1024.2 hPa 0.3 l/m 0.2 km/h (0 Bft) W-NW 0.13 h 93 W/m 16.8 C 18.2 C
11.07.2005 20:00 17.4 C 96 % 1024.5 hPa 0.0 l/m 0.6 km/h (0 Bft) W 0.00 h 15 W/m 16.8 C 17.4 C
11.07.2005 21:00 15.8 C 97 % 1024.7 hPa 0.0 l/m 0.8 km/h (0 Bft) O-SO 0.00 h 7 W/m 15.2 C 15.8 C
11.07.2005 22:00 15.3 C 99 % 1024.8 hPa 0.0 l/m 1.0 km/h (0 Bft) O 0.00 h 0 W/m 15.1 C 15.3 C
11.07.2005 23:00 15.2 C 99 % 1024.8 hPa 0.0 l/m 4.4 km/h (1 Bft) O-SO 0.00 h 0 W/m 15.0 C 15.2 C
12.07.2005 00:00 15.6 C 99 % 1025.2 hPa 0.0 l/m 0.4 km/h (0 Bft) W 0.00 h 0 W/m 15.4 C 15.6 C
12.07.2005 01:00 15.2 C 100 % 1024.8 hPa 0.0 l/m 1.5 km/h (1 Bft) W-NW 0.00 h 0 W/m 15.1 C 15.2 C
12.07.2005 02:00 13.9 C 100 % 1024.9 hPa 0.0 l/m 0.3 km/h (0 Bft) O 0.00 h 0 W/m 13.8 C 13.9 C
12.07.2005 03:00 13.5 C 100 % 1024.8 hPa 0.0 l/m 2.7 km/h (1 Bft) O-SO 0.00 h 0 W/m 13.5 C 13.5 C
12.07.2005 04:00 13.5 C 100 % 1024.2 hPa 0.0 l/m 0.0 km/h (0 Bft) N 0.00 h 0 W/m 13.5 C 13.5 C
12.07.2005 05:00 13.8 C 100 % 1025.0 hPa 0.0 l/m 0.0 km/h (0 Bft) N 0.00 h 4 W/m 13.8 C 13.8 C
12.07.2005 06:00 14.1 C 100 % 1024.9 hPa 0.0 l/m 0.2 km/h (0 Bft) N 0.00 h 27 W/m 14.1 C 14.1 C
12.07.2005 07:00 14.2 C 98 % 1024.9 hPa 0.0 l/m 0.9 km/h (0 Bft) W-NW 0.75 h 198 W/m 13.9 C 14.2 C
12.07.2005 08:00 15.3 C 92 % 1024.8 hPa 0.0 l/m 0.1 km/h (0 Bft) N 1.00 h 386 W/m 14.0 C 15.3 C
12.07.2005 09:00 17.7 C 81 % 1024.2 hPa 0.0 l/m 1.3 km/h (1 Bft) O-SO 1.00 h 542 W/m 14.4 C 17.7 C
12.07.2005 10:00 20.0 C 71 % 1023.1 hPa 0.0 l/m 2.3 km/h (1 Bft) O-SO 1.00 h 677 W/m 14.6 C 20.0 C
12.07.2005 11:00 22.0 C 64 % 1022.9 hPa 0.0 l/m 9.4 km/h (2 Bft) O-SO 0.93 h 729 W/m 14.8 C 22.0 C
12.07.2005 12:00 24.0 C 57 % 1022.6 hPa 0.0 l/m 17.8 km/h (3 Bft) O-SO 1.00 h 863 W/m 14.9 C 24.0 C
12.07.2005 13:00 24.7 C 54 % 1021.6 hPa 0.0 l/m 16.4 km/h (3 Bft) O-SO 0.68 h 685 W/m 14.6 C 24.7 C
12.07.2005 14:00 25.0 C 50 % 1021.4 hPa 0.0 l/m 19.3 km/h (3 Bft) O-SO 0.77 h 731 W/m 13.8 C 25.0 C
12.07.2005 15:00 26.2 C 45 % 1021.3 hPa 0.0 l/m 21.9 km/h (4 Bft) O-SO 1.00 h 818 W/m 13.3 C 26.2 C
12.07.2005 16:00 26.3 C 42 % 1020.4 hPa 0.0 l/m 24.6 km/h (4 Bft) O-SO 0.97 h 691 W/m 12.2 C 26.3 C
12.07.2005 17:00 23.9 C 54 % 1020.5 hPa 0.0 l/m 6.2 km/h (2 Bft) NO 0.55 h 342 W/m 13.8 C 23.9 C
12.07.2005 18:00 24.7 C 51 % 1020.4 hPa 0.0 l/m 1.5 km/h (1 Bft) O 1.00 h 432 W/m 13.8 C 24.7 C
12.07.2005 19:00 24.7 C 47 % 1020.4 hPa 0.0 l/m 1.5 km/h (1 Bft) NO 1.00 h 242 W/m 12.4 C 24.7 C
12.07.2005 20:00 23.0 C 51 % 1020.6 hPa 0.0 l/m 4.4 km/h (1 Bft) NO 0.28 h 52 W/m 12.2 C 23.0 C
12.07.2005 21:00 20.3 C 62 % 1021.2 hPa 0.0 l/m 0.9 km/h (0 Bft) N-NO 0.03 h 9 W/m 12.7 C 20.3 C
12.07.2005 22:00 18.7 C 71 % 1022.2 hPa 0.0 l/m 0.7 km/h (0 Bft) O 0.00 h 0 W/m 13.4 C 18.7 C
12.07.2005 23:00 17.9 C 75 % 1022.3 hPa 0.0 l/m 0.2 km/h (0 Bft) NO 0.00 h 0 W/m 13.3 C 17.9 C
13.07.2005 00:00 16.0 C 86 % 1022.6 hPa 0.0 l/m 0.1 km/h (0 Bft) O 0.00 h 0 W/m 13.7 C 16.0 C
13.07.2005 01:00 14.9 C 91 % 1022.7 hPa 0.0 l/m 1.3 km/h (1 Bft) O 0.00 h 0 W/m 13.4 C 14.9 C
13.07.2005 02:00 14.1 C 93 % 1022.8 hPa 0.0 l/m 0.1 km/h (0 Bft) N 0.00 h 0 W/m 13.0 C 14.1 C
13.07.2005 03:00 13.8 C 96 % 1022.9 hPa 0.0 l/m 0.5 km/h (0 Bft) O 0.00 h 0 W/m 13.2 C 13.8 C
13.07.2005 04:00 13.3 C 96 % 1023.0 hPa 0.0 l/m 2.0 km/h (1 Bft) O-SO 0.00 h 0 W/m 12.6 C 13.3 C
13.07.2005 05:00 12.5 C 98 % 1023.1 hPa 0.0 l/m 0.2 km/h (0 Bft) O-SO 0.10 h 10 W/m 12.1 C 12.5 C
13.07.2005 06:00 13.0 C 97 % 1023.0 hPa 0.0 l/m 0.1 km/h (0 Bft) N 0.00 h 43 W/m 12.5 C 13.0 C
13.07.2005 07:00 14.5 C 92 % 1021.8 hPa 0.0 l/m 0.0 km/h (0 Bft) N 0.90 h 197 W/m 13.2 C 14.5 C
13.07.2005 08:00 16.2 C 83 % 1021.5 hPa 0.0 l/m 0.5 km/h (0 Bft) W-NW 1.00 h 380 W/m 13.3 C 16.2 C
13.07.2005 09:00 18.8 C 72 % 1021.2 hPa 0.0 l/m 2.5 km/h (1 Bft) W-NW 1.00 h 535 W/m 13.7 C 18.8 C
13.07.2005 10:00 21.8 C 63 % 1020.6 hPa 0.0 l/m 5.4 km/h (1 Bft) O-SO 1.00 h 668 W/m 14.5 C 21.8 C
13.07.2005 11:00 24.7 C 53 % 1019.4 hPa 0.0 l/m 11.4 km/h (2 Bft) O-SO 1.00 h 765 W/m 14.6 C 24.7 C
13.07.2005 12:00 25.9 C 45 % 1019.3 hPa 0.0 l/m 8.9 km/h (2 Bft) NO 0.97 h 807 W/m 13.1 C 25.9 C
13.07.2005 13:00 27.0 C 39 % 1019.1 hPa 0.0 l/m 13.1 km/h (3 Bft) NO 1.00 h 851 W/m 12.0 C 27.0 C
13.07.2005 14:00 27.6 C 37 % 1019.0 hPa 0.0 l/m 10.8 km/h (2 Bft) O-SO 0.90 h 800 W/m 11.4 C 27.6 C
13.07.2005 15:00 28.6 C 34 % 1018.9 hPa 0.0 l/m 13.6 km/h (3 Bft) O-SO 0.93 h 759 W/m 11.2 C 28.6 C
13.07.2005 16:00 29.0 C 32 % 1018.7 hPa 0.0 l/m 11.0 km/h (2 Bft) O-SO 0.93 h 679 W/m 10.6 C 29.0 C
13.07.2005 17:00 28.9 C 29 % 1017.9 hPa 0.0 l/m 13.0 km/h (3 Bft) O-SO 1.00 h 564 W/m 9.2 C 28.9 C
13.07.2005 18:00 28.0 C 32 % 1018.0 hPa 0.0 l/m 16.0 km/h (3 Bft) O-SO 1.00 h 419 W/m 9.5 C 28.0 C
13.07.2005 19:00 27.1 C 35 % 1018.1 hPa 0.0 l/m 10.9 km/h (2 Bft) O-SO 1.00 h 261 W/m 10.1 C 27.1 C
13.07.2005 20:00 25.2 C 41 % 1018.3 hPa 0.0 l/m 0.8 km/h (0 Bft) O-SO 0.87 h 83 W/m 10.9 C 25.2 C
13.07.2005 21:00 21.7 C 56 % 1019.2 hPa 0.0 l/m 0.0 km/h (0 Bft) N 0.17 h 13 W/m 12.4 C 21.7 C
13.07.2005 22:00 19.0 C 68 % 1020.1 hPa 0.0 l/m 0.5 km/h (0 Bft) O-SO 0.00 h 0 W/m 12.9 C 19.0 C
13.07.2005 23:00 17.3 C 77 % 1020.3 hPa 0.0 l/m 1.5 km/h (1 Bft) O-SO 0.00 h 0 W/m 13.2 C 17.3 C
14.07.2005 00:00 16.2 C 82 % 1020.8 hPa 0.0 l/m 1.4 km/h (1 Bft) O-SO 0.00 h 0 W/m 13.1 C 16.2 C
14.07.2005 01:00 15.2 C 88 % 1020.7 hPa 0.0 l/m 1.8 km/h (1 Bft) O-SO 0.00 h 0 W/m 13.3 C 15.2 C
14.07.2005 02:00 14.7 C 90 % 1020.7 hPa 0.0 l/m 0.3 km/h (0 Bft) O-SO 0.00 h 0 W/m 13.0 C 14.7 C
14.07.2005 03:00 13.5 C 95 % 1020.8 hPa 0.0 l/m 0.7 km/h (0 Bft) O-SO 0.00 h 0 W/m 12.7 C 13.5 C
14.07.2005 04:00 13.0 C 98 % 1020.9 hPa 0.0 l/m 4.1 km/h (1 Bft) O-SO 0.00 h 0 W/m 12.7 C 13.0 C
14.07.2005 05:00 12.4 C 99 % 1021.0 hPa 0.0 l/m 1.5 km/h (1 Bft) O-SO 0.07 h 10 W/m 12.2 C 12.4 C
14.07.2005 06:00 12.4 C 98 % 1021.5 hPa 0.0 l/m 0.3 km/h (0 Bft) O-SO 0.02 h 37 W/m 12.1 C 12.4 C
14.07.2005 07:00 14.0 C 92 % 1021.8 hPa 0.0 l/m 0.0 km/h (0 Bft) N 0.90 h 236 W/m 12.7 C 14.0 C
14.07.2005 08:00 16.2 C 82 % 1021.5 hPa 0.0 l/m 0.5 km/h (0 Bft) O-SO 1.00 h 405 W/m 13.1 C 16.2 C
14.07.2005 09:00 18.9 C 70 % 1021.2 hPa 0.0 l/m 0.2 km/h (0 Bft) NW 1.00 h 547 W/m 13.4 C 18.9 C
14.07.2005 10:00 22.6 C 58 % 1020.7 hPa 0.0 l/m 5.8 km/h (2 Bft) O-SO 1.00 h 677 W/m 13.7 C 22.6 C
14.07.2005 11:00 24.6 C 51 % 1020.5 hPa 0.0 l/m 5.4 km/h (1 Bft) O-SO 1.00 h 775 W/m 13.7 C 24.6 C
14.07.2005 12:00 26.5 C 43 % 1020.2 hPa 0.0 l/m 6.1 km/h (2 Bft) O-SO 1.00 h 831 W/m 12.8 C 26.5 C
14.07.2005 13:00 28.3 C 35 % 1019.1 hPa 0.0 l/m 15.9 km/h (3 Bft) O-SO 1.00 h 854 W/m 11.2 C 28.3 C
14.07.2005 14:00 29.3 C 30 % 1018.5 hPa 0.0 l/m 15.4 km/h (3 Bft) O-SO 1.00 h 841 W/m 9.7 C 29.3 C
14.07.2005 15:00 30.2 C 22 % 1017.7 hPa 0.0 l/m 14.3 km/h (3 Bft) O-SO 1.00 h 783 W/m 5.9 C 30.2 C
14.07.2005 16:00 30.7 C 20 % 1017.6 hPa 0.0 l/m 8.2 km/h (2 Bft) O-SO 1.00 h 695 W/m 5.1 C 30.7 C
14.07.2005 17:00 30.4 C 20 % 1016.6 hPa 0.0 l/m 6.0 km/h (2 Bft) O-SO 1.00 h 570 W/m 4.9 C 30.4 C
14.07.2005 18:00 29.7 C 20 % 1016.7 hPa 0.0 l/m 4.3 km/h (1 Bft) O-SO 1.00 h 432 W/m 4.3 C 29.7 C
14.07.2005 19:00 28.5 C 21 % 1016.9 hPa 0.0 l/m 3.0 km/h (1 Bft) O-SO 1.00 h 279 W/m 4.2 C 28.5 C
14.07.2005 20:00 26.1 C 33 % 1017.2 hPa 0.0 l/m 5.1 km/h (1 Bft) O-SO 1.00 h 107 W/m 8.6 C 26.1 C
14.07.2005 21:00 21.6 C 52 % 1017.9 hPa 0.0 l/m 1.0 km/h (0 Bft) O-SO 0.17 h 14 W/m 11.3 C 21.6 C
14.07.2005 22:00 18.3 C 65 % 1019.2 hPa 0.0 l/m 3.5 km/h (1 Bft) O-SO 0.00 h 0 W/m 11.6 C 18.3 C
14.07.2005 23:00 16.6 C 72 % 1019.4 hPa 0.0 l/m 2.7 km/h (1 Bft) O-SO 0.00 h 0 W/m 11.5 C 16.6 C
15.07.2005 00:00 15.5 C 76 % 1019.5 hPa 0.0 l/m 2.5 km/h (1 Bft) O-SO 0.00 h 0 W/m 11.3 C 15.5 C
15.07.2005 01:00 14.6 C 79 % 1019.7 hPa 0.0 l/m 3.7 km/h (1 Bft) O-SO 0.00 h 0 W/m 11.1 C 14.6 C
15.07.2005 02:00 13.9 C 84 % 1019.8 hPa 0.0 l/m 0.7 km/h (0 Bft) O-SO 0.00 h 0 W/m 11.2 C 13.9 C
15.07.2005 03:00 13.0 C 90 % 1019.9 hPa 0.0 l/m 0.7 km/h (0 Bft) O-SO 0.00 h 0 W/m 11.4 C 13.0 C
15.07.2005 04:00 12.4 C 92 % 1019.6 hPa 0.0 l/m 0.5 km/h (0 Bft) O-SO 0.00 h 0 W/m 11.2 C 12.4 C
15.07.2005 05:00 12.3 C 92 % 1020.0 hPa 0.0 l/m 1.5 km/h (1 Bft) O-SO 0.07 h 9 W/m 11.1 C 12.3 C
15.07.2005 06:00 12.7 C 92 % 1019.9 hPa 0.0 l/m 1.3 km/h (1 Bft) O-SO 0.03 h 39 W/m 11.3 C 12.7 C
15.07.2005 07:00 14.8 C 82 % 1019.6 hPa 0.0 l/m 0.1 km/h (0 Bft) N 0.83 h 207 W/m 11.7 C 14.8 C
15.07.2005 08:00 17.3 C 73 % 1019.3 hPa 0.0 l/m 0.8 km/h (0 Bft) O-SO 0.83 h 333 W/m 12.3 C 17.3 C
15.07.2005 09:00 19.8 C 65 % 1019.0 hPa 0.0 l/m 1.2 km/h (1 Bft) O-SO 0.47 h 337 W/m 12.9 C 19.8 C
15.07.2005 10:00 21.8 C 59 % 1018.7 hPa 0.0 l/m 1.1 km/h (1 Bft) O-SO 0.70 h 543 W/m 13.3 C 21.8 C
15.07.2005 11:00 25.0 C 50 % 1017.5 hPa 0.0 l/m 4.7 km/h (1 Bft) O-SO 1.00 h 751 W/m 13.8 C 25.0 C
15.07.2005 12:00 27.2 C 45 % 1016.8 hPa 0.0 l/m 3.7 km/h (1 Bft) NW 0.80 h 726 W/m 14.1 C 27.2 C
15.07.2005 13:00 28.6 C 42 % 1015.8 hPa 0.0 l/m 1.4 km/h (1 Bft) NW 0.90 h 780 W/m 14.6 C 28.6 C
15.07.2005 14:00 30.3 C 37 % 1014.9 hPa 0.0 l/m 8.8 km/h (2 Bft) W-NW 1.00 h 824 W/m 14.0 C 30.3 C
15.07.2005 15:00 31.3 C 33 % 1014.5 hPa 0.0 l/m 19.5 km/h (3 Bft) W-NW 1.00 h 775 W/m 13.1 C 31.3 C
15.07.2005 16:00 31.4 C 34 % 1014.4 hPa 0.0 l/m 19.9 km/h (4 Bft) W-NW 1.00 h 663 W/m 13.9 C 31.4 C
15.07.2005 17:00 31.6 C 34 % 1014.4 hPa 0.0 l/m 17.2 km/h (3 Bft) W-NW 1.00 h 544 W/m 14.0 C 31.6 C
15.07.2005 18:00 31.3 C 35 % 1014.3 hPa 0.0 l/m 17.4 km/h (3 Bft) W-NW 0.98 h 405 W/m 13.9 C 31.3 C
15.07.2005 19:00 30.1 C 33 % 1014.6 hPa 0.0 l/m 18.3 km/h (3 Bft) W-NW 1.02 h 239 W/m 12.2 C 30.1 C
15.07.2005 20:00 27.9 C 38 % 1014.9 hPa 0.0 l/m 10.2 km/h (2 Bft) W-NW 0.50 h 60 W/m 12.3 C 27.9 C
15.07.2005 21:00 25.2 C 46 % 1015.2 hPa 0.0 l/m 3.7 km/h (1 Bft) W-NW 0.07 h 10 W/m 12.6 C 25.2 C
15.07.2005 22:00 22.2 C 58 % 1015.6 hPa 0.0 l/m 4.6 km/h (1 Bft) O-SO 0.00 h 0 W/m 13.6 C 22.2 C
15.07.2005 23:00 20.5 C 67 % 1016.0 hPa 0.0 l/m 3.3 km/h (1 Bft) O-SO 0.00 h 0 W/m 14.1 C 20.5 C
16.07.2005 00:00 19.5 C 71 % 1016.9 hPa 0.0 l/m 4.1 km/h (1 Bft) O-SO 0.00 h 0 W/m 14.1 C 19.5 C
16.07.2005 01:00 18.1 C 79 % 1017.0 hPa 0.0 l/m 0.0 km/h (0 Bft) N 0.00 h 0 W/m 14.3 C 18.1 C
16.07.2005 02:00 17.5 C 85 % 1016.2 hPa 0.0 l/m 0.0 km/h (0 Bft) N 0.00 h 0 W/m 14.9 C 17.5 C
16.07.2005 03:00 18.1 C 86 % 1016.2 hPa 0.0 l/m 4.3 km/h (1 Bft) O-SO 0.00 h 0 W/m 15.7 C 18.1 C
16.07.2005 04:00 18.9 C 80 % 1015.6 hPa 0.0 l/m 2.0 km/h (1 Bft) O-SO 0.00 h 0 W/m 15.4 C 18.9 C
16.07.2005 05:00 18.9 C 82 % 1015.7 hPa 0.0 l/m 3.1 km/h (1 Bft) O-SO 0.00 h 4 W/m 15.6 C 18.9 C
16.07.2005 06:00 19.2 C 77 % 1015.9 hPa 0.0 l/m 6.1 km/h (2 Bft) O-SO 0.00 h 27 W/m 15.2 C 19.2 C
16.07.2005 07:00 20.7 C 67 % 1015.8 hPa 0.0 l/m 1.5 km/h (1 Bft) O 0.50 h 142 W/m 14.3 C 20.7 C
16.07.2005 08:00 21.2 C 65 % 1015.7 hPa 0.0 l/m 0.5 km/h (0 Bft) SO 0.07 h 145 W/m 14.3 C 21.2 C
16.07.2005 09:00 22.5 C 60 % 1015.5 hPa 0.0 l/m 4.7 km/h (1 Bft) SO 0.50 h 297 W/m 14.3 C 22.5 C
16.07.2005 10:00 24.0 C 55 % 1015.2 hPa 0.0 l/m 12.2 km/h (2 Bft) SO 0.78 h 543 W/m 14.4 C 24.0 C
16.07.2005 11:00 24.8 C 54 % 1014.7 hPa 0.0 l/m 3.7 km/h (1 Bft) SW 0.37 h 266 W/m 14.9 C 24.8 C
16.07.2005 12:00 21.9 C 72 % 1015.7 hPa 1.6 l/m 1.7 km/h (1 Bft) W-SW 0.00 h 59 W/m 16.5 C 21.9 C
16.07.2005 13:00 20.8 C 89 % 1016.0 hPa 1.0 l/m 1.4 km/h (1 Bft) O-SO 0.03 h 204 W/m 18.9 C 20.8 C
16.07.2005 14:00 20.0 C 89 % 1016.3 hPa 12.4 l/m 6.7 km/h (2 Bft) W-NW 0.15 h 174 W/m 18.2 C 20.0 C
16.07.2005 15:00 21.3 C 88 % 1015.5 hPa 0.0 l/m 1.8 km/h (1 Bft) O-SO 0.53 h 486 W/m 19.3 C 21.3 C
16.07.2005 16:00 24.4 C 68 % 1014.4 hPa 0.0 l/m 0.3 km/h (0 Bft) NW 0.87 h 590 W/m 18.0 C 24.4 C
16.07.2005 17:00 25.1 C 67 % 1014.1 hPa 0.0 l/m 0.0 km/h (0 Bft) N 0.83 h 375 W/m 18.4 C 25.1 C
16.07.2005 18:00 26.1 C 67 % 1013.6 hPa 0.0 l/m 0.7 km/h (0 Bft) W 0.47 h 279 W/m 19.4 C 26.1 C
16.07.2005 19:00 26.4 C 62 % 1013.0 hPa 0.0 l/m 3.6 km/h (1 Bft) SO 0.78 h 193 W/m 18.5 C 26.4 C
16.07.2005 20:00 25.8 C 64 % 1013.9 hPa 0.0 l/m 1.4 km/h (1 Bft) SO 0.80 h 82 W/m 18.3 C 25.8 C
16.07.2005 21:00 22.3 C 76 % 1014.5 hPa 0.0 l/m 1.2 km/h (1 Bft) O-SO 0.10 h 11 W/m 17.9 C 22.3 C
16.07.2005 22:00 21.0 C 84 % 1015.4 hPa 0.0 l/m 6.9 km/h (2 Bft) O-SO 0.00 h 0 W/m 18.1 C 21.0 C
16.07.2005 23:00 19.9 C 91 % 1015.9 hPa 0.0 l/m 6.9 km/h (2 Bft) O-SO 0.00 h 0 W/m 18.4 C 19.9 C
17.07.2005 00:00 19.3 C 94 % 1015.9 hPa 0.0 l/m 4.2 km/h (1 Bft) O-SO 0.00 h 0 W/m 18.2 C 19.3 C
17.07.2005 01:00 18.2 C 97 % 1016.1 hPa 0.0 l/m 2.4 km/h (1 Bft) O-SO 0.00 h 0 W/m 17.7 C 18.2 C
17.07.2005 02:00 17.3 C 99 % 1016.2 hPa 0.0 l/m 0.7 km/h (0 Bft) O-SO 0.00 h 0 W/m 17.1 C 17.3 C
17.07.2005 03:00 16.7 C 99 % 1016.3 hPa 0.0 l/m 0.0 km/h (0 Bft) N 0.00 h 0 W/m 16.6 C 16.7 C
17.07.2005 04:00 16.7 C 100 % 1016.3 hPa 0.0 l/m 0.0 km/h (0 Bft) N 0.00 h 0 W/m 16.7 C 16.7 C
17.07.2005 05:00 17.8 C 100 % 1016.1 hPa 0.0 l/m 0.0 km/h (0 Bft) N 0.00 h 3 W/m 17.8 C 17.8 C
17.07.2005 06:00 17.6 C 99 % 1016.1 hPa 0.0 l/m 0.6 km/h (0 Bft) W 0.00 h 9 W/m 17.5 C 17.6 C
17.07.2005 07:00 17.3 C 96 % 1016.2 hPa 0.0 l/m 0.2 km/h (0 Bft) W-NW 0.00 h 46 W/m 16.7 C 17.3 C
17.07.2005 08:00 17.6 C 97 % 1016.2 hPa 0.0 l/m 0.1 km/h (0 Bft) N 0.00 h 128 W/m 17.0 C 17.6 C
17.07.2005 09:00 19.3 C 92 % 1016.4 hPa 0.0 l/m 2.7 km/h (1 Bft) O-SO 0.48 h 279 W/m 18.0 C 19.3 C
17.07.2005 10:00 21.5 C 82 % 1015.7 hPa 0.0 l/m 0.6 km/h (0 Bft) W 0.98 h 646 W/m 18.3 C 21.5 C
17.07.2005 11:00 25.1 C 61 % 1015.2 hPa 0.0 l/m 3.5 km/h (1 Bft) W-NW 1.02 h 752 W/m 16.8 C 25.1 C
17.07.2005 12:00 27.3 C 40 % 1014.9 hPa 0.0 l/m 13.9 km/h (3 Bft) W-NW 1.00 h 817 W/m 12.6 C 27.3 C
17.07.2005 13:00 28.4 C 36 % 1014.0 hPa 0.0 l/m 25.1 km/h (4 Bft) W-NW 1.00 h 833 W/m 11.8 C 28.4 C
17.07.2005 14:00 29.5 C 32 % 1013.6 hPa 0.0 l/m 16.8 km/h (3 Bft) W-NW 0.98 h 820 W/m 11.2 C 29.5 C
17.07.2005 15:00 30.4 C 31 % 1012.9 hPa 0.0 l/m 16.2 km/h (3 Bft) W-NW 1.02 h 769 W/m 11.3 C 30.4 C
17.07.2005 16:00 31.3 C 27 % 1012.4 hPa 0.0 l/m 16.0 km/h (3 Bft) W-NW 1.00 h 674 W/m 9.7 C 31.3 C
17.07.2005 17:00 31.4 C 25 % 1012.0 hPa 0.0 l/m 16.3 km/h (3 Bft) W-NW 1.00 h 552 W/m 8.6 C 31.4 C
17.07.2005 18:00 30.7 C 27 % 1011.4 hPa 0.0 l/m 11.0 km/h (2 Bft) W-NW 1.00 h 407 W/m 9.4 C 30.7 C
17.07.2005 19:00 29.4 C 32 % 1011.6 hPa 0.0 l/m 1.4 km/h (1 Bft) W 1.00 h 248 W/m 10.8 C 29.4 C
17.07.2005 20:00 27.4 C 38 % 1011.8 hPa 0.0 l/m 1.5 km/h (1 Bft) O-SO 0.98 h 91 W/m 11.7 C 27.4 C
17.07.2005 21:00 23.0 C 58 % 1012.4 hPa 0.0 l/m 5.2 km/h (1 Bft) O-SO 0.13 h 13 W/m 14.3 C 23.0 C
17.07.2005 22:00 20.4 C 67 % 1012.7 hPa 0.0 l/m 2.3 km/h (1 Bft) O-SO 0.00 h 0 W/m 13.9 C 20.4 C
17.07.2005 23:00 18.9 C 73 % 1012.6 hPa 0.0 l/m 2.3 km/h (1 Bft) O-SO 0.00 h 0 W/m 14.0 C 18.9 C
Min-Datum _ 14.07.05 14.07.05 17.07.05 - 11.07.05 - - - 14.07.05 14.07.05
_ Min-Zeit 05:13 15:13 17:41 - 00:05 - - - 19:47 05:13
Minimum _ 12.0 C 20 % 1011.3 hPa - 0.0 km/h (0 Bft) - - - 2.9 C 12.0 C
Max-Datum _ 15.07.05 11.07.05 12.07.05 16.07.05 17.07.05 - 17.07.05 11.07.05 16.07.05 15.07.05
_ Max-Zeit 16:31 00:01 00:23 14:30 13:21 - 10:33 12:01 18:05 16:31
Maximum _ 32.0 C 100 % 1025.8 hPa 12.4 l/m 38.7 km/h
W-NW (5 Bft)
- 0.07 h 998 W/m 21.0 C 32.0 C
Durchschnitt _ 20.8 C 70 % 1019.1 hPa #20.1 l/m 4.6 km/h (1 Bft) O-SO #74:52 h 383 W/m 13.7 C 20.8 C

Durchschnitt Minimum Temp.20.0 C
Durchschnitt Maximum Temp.21.6 C
© Kaiko 2005